createdAt,value
2023-04-30T00:01:42.026Z,12.23
2023-04-30T00:04:09.526Z,12.22
2023-04-30T00:06:36.857Z,12.10
2023-04-30T00:09:04.135Z,12.07
2023-04-30T00:11:31.603Z,12.10
2023-04-30T00:13:59.013Z,12.13
2023-04-30T00:16:27.958Z,12.12
2023-04-30T00:18:55.475Z,12.10
2023-04-30T00:21:22.826Z,12.03
2023-04-30T00:23:50.902Z,12.09
2023-04-30T00:26:18.123Z,12.07
2023-04-30T00:28:45.568Z,12.06
2023-04-30T00:31:12.775Z,12.14
2023-04-30T00:33:41.974Z,12.12
2023-04-30T00:36:09.335Z,12.09
2023-04-30T00:38:36.698Z,12.16
2023-04-30T00:41:04.912Z,12.07
2023-04-30T00:43:32.262Z,12.10
2023-04-30T00:45:59.710Z,12.17
2023-04-30T00:48:28.261Z,12.26
2023-04-30T00:50:56.899Z,12.26
2023-04-30T00:53:24.408Z,12.33
2023-04-30T00:55:52.398Z,12.30
2023-04-30T00:58:20.191Z,12.34
2023-04-30T01:00:48.139Z,12.41
2023-04-30T01:03:16.491Z,12.44
2023-04-30T01:05:43.825Z,12.33
2023-04-30T01:08:12.674Z,12.48
2023-04-30T01:10:46.140Z,12.47
2023-04-30T01:13:22.457Z,12.67
2023-04-30T01:15:57.460Z,12.74
2023-04-30T01:18:29.646Z,12.82
2023-04-30T01:21:06.200Z,12.87
2023-04-30T01:23:53.616Z,12.75
2023-04-30T01:26:32.191Z,12.64
2023-04-30T01:29:05.558Z,12.65
2023-04-30T01:31:33.318Z,12.62
2023-04-30T01:34:00.684Z,12.58
2023-04-30T01:36:45.815Z,12.61
2023-04-30T01:39:27.688Z,12.65
2023-04-30T01:42:06.491Z,12.71
2023-04-30T01:44:47.466Z,12.79
2023-04-30T01:47:25.895Z,12.87
2023-04-30T01:50:03.984Z,12.93
2023-04-30T01:52:40.221Z,12.89
2023-04-30T01:55:11.904Z,12.89
2023-04-30T01:57:42.259Z,12.91
2023-04-30T02:00:12.231Z,12.88
2023-04-30T02:02:39.736Z,12.79
2023-04-30T02:05:07.793Z,12.78
2023-04-30T02:07:39.826Z,12.77
2023-04-30T02:10:08.667Z,12.62
2023-04-30T02:12:37.532Z,12.64
2023-04-30T02:15:06.274Z,12.60
2023-04-30T02:17:35.128Z,12.57
2023-04-30T02:20:02.675Z,12.48
2023-04-30T02:22:30.155Z,12.55
2023-04-30T02:24:57.551Z,12.48
2023-04-30T02:27:26.365Z,12.45
2023-04-30T02:29:54.655Z,12.41
2023-04-30T02:32:22.339Z,12.47
2023-04-30T02:34:51.116Z,12.45
2023-04-30T02:37:18.676Z,12.38
2023-04-30T02:39:45.939Z,12.41
2023-04-30T02:42:13.423Z,12.48
2023-04-30T02:44:41.648Z,12.48
2023-04-30T02:47:08.908Z,12.48
2023-04-30T02:49:36.706Z,12.60
2023-04-30T02:52:06.146Z,12.52
2023-04-30T02:54:33.400Z,12.51
2023-04-30T02:57:00.659Z,12.47
2023-04-30T02:59:28.208Z,12.51
2023-04-30T03:01:55.460Z,12.54
2023-04-30T03:04:24.083Z,12.51
2023-04-30T03:06:51.370Z,12.50
2023-04-30T03:09:20.175Z,12.47
2023-04-30T03:11:47.530Z,12.41
2023-04-30T03:14:15.072Z,12.31
2023-04-30T03:16:42.797Z,12.31
2023-04-30T03:19:10.095Z,12.29
2023-04-30T03:21:37.308Z,12.23
2023-04-30T03:24:05.399Z,12.22
2023-04-30T03:26:34.118Z,12.07
2023-04-30T03:29:02.208Z,12.13
2023-04-30T03:31:29.554Z,12.07
2023-04-30T03:33:56.824Z,12.12
2023-04-30T03:36:24.447Z,12.12
2023-04-30T03:38:51.848Z,12.10
2023-04-30T03:41:19.395Z,12.06
2023-04-30T03:43:48.156Z,12.02
2023-04-30T03:46:15.559Z,12.00
2023-04-30T03:48:42.859Z,11.90
2023-04-30T03:51:10.354Z,11.90
2023-04-30T03:53:37.855Z,11.81
2023-04-30T03:56:06.034Z,11.76
2023-04-30T03:58:33.205Z,11.75
2023-04-30T04:01:01.810Z,11.69
2023-04-30T04:03:29.119Z,11.69
2023-04-30T04:05:56.415Z,11.66
2023-04-30T04:08:23.831Z,11.64
2023-04-30T04:10:51.116Z,11.62
2023-04-30T04:13:18.448Z,11.65
2023-04-30T04:15:45.992Z,11.64
2023-04-30T04:18:14.771Z,11.65
2023-04-30T04:20:42.258Z,11.62
2023-04-30T04:23:09.569Z,11.59
2023-04-30T04:25:36.856Z,11.62
2023-04-30T04:28:04.409Z,11.64
2023-04-30T04:30:31.837Z,11.58
2023-04-30T04:33:00.626Z,11.58
2023-04-30T04:35:29.443Z,11.59
2023-04-30T04:37:56.920Z,11.52
2023-04-30T04:40:24.275Z,11.47
2023-04-30T04:42:52.219Z,11.50
2023-04-30T04:45:20.810Z,11.54
2023-04-30T04:47:48.570Z,11.55
2023-04-30T04:50:15.820Z,11.52
2023-04-30T04:52:44.458Z,11.55
2023-04-30T04:55:12.347Z,11.52
2023-04-30T04:57:39.771Z,11.52
2023-04-30T05:00:09.701Z,11.58
2023-04-30T05:02:37.123Z,11.54
2023-04-30T05:05:04.980Z,11.57
2023-04-30T05:07:32.383Z,11.58
2023-04-30T05:10:01.074Z,11.58
2023-04-30T05:12:28.427Z,11.57
2023-04-30T05:14:55.729Z,11.57
2023-04-30T05:17:23.092Z,11.59
2023-04-30T05:19:52.418Z,11.72
2023-04-30T05:22:19.674Z,11.82
2023-04-30T05:24:47.087Z,11.87
2023-04-30T05:27:16.790Z,12.03
2023-04-30T05:29:44.077Z,12.03
2023-04-30T05:32:11.690Z,12.04
2023-04-30T05:34:39.061Z,12.14
2023-04-30T05:37:06.418Z,12.16
2023-04-30T05:39:33.667Z,12.26
2023-04-30T05:42:02.277Z,12.30
2023-04-30T05:44:31.195Z,12.33
2023-04-30T05:46:58.524Z,12.48
2023-04-30T05:49:26.696Z,12.55
2023-04-30T05:51:53.926Z,12.55
2023-04-30T05:54:21.470Z,12.60
2023-04-30T05:56:48.699Z,12.64
2023-04-30T05:59:16.191Z,12.62
2023-04-30T06:01:44.927Z,12.71
2023-04-30T06:04:12.570Z,12.75
2023-04-30T06:06:39.825Z,12.68
2023-04-30T06:09:07.213Z,12.71
2023-04-30T06:11:34.925Z,12.71
2023-04-30T06:14:02.232Z,12.69
2023-04-30T06:16:29.684Z,12.72
2023-04-30T06:18:58.492Z,12.75
2023-04-30T06:21:26.230Z,12.81
2023-04-30T06:23:53.580Z,12.91
2023-04-30T06:26:20.827Z,12.82
2023-04-30T06:28:48.658Z,12.79
2023-04-30T06:31:16.171Z,12.77
2023-04-30T06:33:43.845Z,12.72
2023-04-30T06:36:12.595Z,12.69
2023-04-30T06:38:40.608Z,12.77
2023-04-30T06:41:07.885Z,12.89
2023-04-30T06:43:35.305Z,12.98
2023-04-30T06:46:02.859Z,13.03
2023-04-30T06:48:30.244Z,13.12
2023-04-30T06:50:57.574Z,13.24
2023-04-30T06:53:26.646Z,13.46
2023-04-30T06:55:53.848Z,13.44
2023-04-30T06:58:21.363Z,13.61
2023-04-30T07:00:48.551Z,13.77
2023-04-30T07:03:15.968Z,13.91
2023-04-30T07:05:43.967Z,13.98
2023-04-30T07:08:11.291Z,13.92
2023-04-30T07:10:39.908Z,14.00
2023-04-30T07:13:08.390Z,13.89
2023-04-30T07:15:35.830Z,14.16
2023-04-30T07:18:04.122Z,14.08
2023-04-30T07:20:31.682Z,14.11
2023-04-30T07:22:58.941Z,14.12
2023-04-30T07:25:26.455Z,14.19
2023-04-30T07:28:03.265Z,14.19
2023-04-30T07:30:30.609Z,14.19
2023-04-30T07:32:57.840Z,14.39
2023-04-30T07:35:25.744Z,14.40
2023-04-30T07:37:53.038Z,14.49
2023-04-30T07:40:34.524Z,14.53
2023-04-30T07:43:05.240Z,14.60
2023-04-30T07:45:34.910Z,14.76
2023-04-30T07:48:02.491Z,15.18
2023-04-30T07:50:34.093Z,15.46
2023-04-30T07:53:01.978Z,15.57
2023-04-30T07:55:29.480Z,15.21
2023-04-30T07:57:56.752Z,15.09
2023-04-30T08:00:26.646Z,15.32
2023-04-30T08:02:53.965Z,15.50
2023-04-30T08:05:21.530Z,15.38
2023-04-30T08:07:48.825Z,15.47
2023-04-30T08:10:16.066Z,15.35
2023-04-30T08:12:43.480Z,15.36
2023-04-30T08:15:10.913Z,15.22
2023-04-30T08:17:40.026Z,15.14
2023-04-30T08:20:09.614Z,14.99
2023-04-30T08:22:37.136Z,15.35
2023-04-30T08:25:04.826Z,15.60
2023-04-30T08:27:32.560Z,15.64
2023-04-30T08:29:59.848Z,15.90
2023-04-30T08:32:27.724Z,15.94
2023-04-30T08:34:56.600Z,16.00
2023-04-30T08:37:23.933Z,16.14
2023-04-30T08:39:51.299Z,16.18
2023-04-30T08:42:21.558Z,16.35
2023-04-30T08:44:48.920Z,16.33
2023-04-30T08:47:18.243Z,16.53
2023-04-30T08:49:46.555Z,16.75
2023-04-30T08:52:15.206Z,16.88
2023-04-30T08:54:45.013Z,16.77
2023-04-30T08:57:12.251Z,16.76
2023-04-30T08:59:39.543Z,16.77
2023-04-30T09:02:07.784Z,16.47
2023-04-30T09:04:35.120Z,16.32
2023-04-30T09:07:05.204Z,16.62
2023-04-30T09:09:39.567Z,16.91
2023-04-30T09:12:17.861Z,16.86
2023-04-30T09:15:00.045Z,16.90
2023-04-30T09:17:27.376Z,17.11
2023-04-30T09:19:54.749Z,16.44
2023-04-30T09:22:23.176Z,16.76
2023-04-30T09:24:51.954Z,17.10
2023-04-30T09:27:20.851Z,17.53
2023-04-30T09:29:48.446Z,17.25
2023-04-30T09:32:16.176Z,16.96
2023-04-30T09:34:43.647Z,16.44
2023-04-30T09:37:11.882Z,16.83
2023-04-30T09:39:48.660Z,17.34
2023-04-30T09:42:19.284Z,17.61
2023-04-30T09:44:48.331Z,17.17
2023-04-30T09:47:17.264Z,16.86
2023-04-30T09:49:47.767Z,16.70
2023-04-30T09:52:16.258Z,16.79
2023-04-30T09:54:44.736Z,17.30
2023-04-30T09:57:13.936Z,17.36
2023-04-30T09:59:45.119Z,16.90
2023-04-30T10:02:20.310Z,16.67
2023-04-30T10:04:55.908Z,17.32
2023-04-30T10:07:26.382Z,16.93
2023-04-30T10:09:59.483Z,16.90
2023-04-30T10:12:34.723Z,17.00
2023-04-30T10:15:10.616Z,16.90
2023-04-30T10:17:41.621Z,16.96
2023-04-30T10:20:11.352Z,17.00
2023-04-30T10:22:38.951Z,17.11
2023-04-30T10:25:07.236Z,17.71
2023-04-30T10:27:35.174Z,17.20
2023-04-30T10:30:04.663Z,16.87
2023-04-30T10:32:38.856Z,17.24
2023-04-30T10:35:12.613Z,17.45
2023-04-30T10:37:47.511Z,17.71
2023-04-30T10:40:15.326Z,18.78
2023-04-30T10:42:46.534Z,18.27
2023-04-30T10:45:16.360Z,17.53
2023-04-30T10:47:45.865Z,17.27
2023-04-30T10:50:13.903Z,18.20
2023-04-30T10:52:41.365Z,17.89
2023-04-30T10:55:10.106Z,17.82
2023-04-30T10:57:44.095Z,17.78
2023-04-30T11:00:26.305Z,17.56
2023-04-30T11:02:57.695Z,17.68
2023-04-30T11:05:35.975Z,17.78
2023-04-30T11:08:03.379Z,17.52
2023-04-30T11:10:33.975Z,17.24
2023-04-30T11:13:05.895Z,17.58
2023-04-30T11:15:41.278Z,18.33
2023-04-30T11:18:09.899Z,17.82
2023-04-30T11:20:41.809Z,17.82
2023-04-30T11:23:11.591Z,18.49
2023-04-30T11:25:43.020Z,18.30
2023-04-30T11:28:15.534Z,17.73
2023-04-30T11:30:51.471Z,17.73
2023-04-30T11:33:19.175Z,17.44
2023-04-30T11:35:46.573Z,17.83
2023-04-30T11:38:15.601Z,18.03
2023-04-30T11:40:43.970Z,18.10
2023-04-30T11:43:22.021Z,17.89
2023-04-30T11:46:01.678Z,17.99
2023-04-30T11:48:32.896Z,17.87
2023-04-30T11:51:03.085Z,17.97
2023-04-30T11:53:31.181Z,17.80
2023-04-30T11:56:03.111Z,17.79
2023-04-30T11:58:34.398Z,17.53
2023-04-30T12:01:03.887Z,17.48
2023-04-30T12:03:31.670Z,17.58
2023-04-30T12:05:59.035Z,17.62
2023-04-30T12:08:26.847Z,17.63
2023-04-30T12:10:54.154Z,17.66
2023-04-30T12:13:21.531Z,18.00
2023-04-30T12:15:59.430Z,19.14
2023-04-30T12:18:28.194Z,19.99
2023-04-30T12:20:55.646Z,20.53
2023-04-30T12:23:23.029Z,19.91
2023-04-30T12:25:50.507Z,20.94
2023-04-30T12:28:17.973Z,19.51
2023-04-30T12:30:45.298Z,19.83
2023-04-30T12:33:13.129Z,19.17
2023-04-30T12:35:44.325Z,18.75
2023-04-30T12:38:15.990Z,19.78
2023-04-30T12:40:47.443Z,20.54
2023-04-30T12:43:17.224Z,20.92
2023-04-30T12:45:46.661Z,21.06
2023-04-30T12:48:15.552Z,20.74
2023-04-30T12:50:48.100Z,21.13
2023-04-30T12:53:15.605Z,21.40
2023-04-30T12:55:43.073Z,21.53
2023-04-30T12:58:13.129Z,20.84
2023-04-30T13:00:48.218Z,21.02
2023-04-30T13:03:17.106Z,20.22
2023-04-30T13:05:49.084Z,19.77
2023-04-30T13:08:17.034Z,19.93
2023-04-30T13:10:44.582Z,19.47
2023-04-30T13:13:12.791Z,19.31
2023-04-30T13:15:40.825Z,18.92
2023-04-30T13:18:09.678Z,18.36
2023-04-30T13:20:37.219Z,17.71
2023-04-30T13:23:06.504Z,17.76
2023-04-30T13:25:34.870Z,17.82
2023-04-30T13:28:02.214Z,18.01
2023-04-30T13:30:29.912Z,17.99
2023-04-30T13:32:57.295Z,18.06
2023-04-30T13:35:24.805Z,18.13
2023-04-30T13:37:55.359Z,18.47
2023-04-30T13:40:24.007Z,18.68
2023-04-30T13:42:51.392Z,18.51
2023-04-30T13:45:19.169Z,18.16
2023-04-30T13:47:46.873Z,18.16
2023-04-30T13:50:14.359Z,18.13
2023-04-30T13:52:41.656Z,18.00
2023-04-30T13:55:10.027Z,18.14
2023-04-30T13:57:39.892Z,18.17
2023-04-30T14:00:09.218Z,18.18
2023-04-30T14:02:36.595Z,18.30
2023-04-30T14:05:06.540Z,18.11
2023-04-30T14:07:34.252Z,18.24
2023-04-30T14:10:01.536Z,18.06
2023-04-30T14:12:30.890Z,18.17
2023-04-30T14:14:59.817Z,18.41
2023-04-30T14:17:27.843Z,18.18
2023-04-30T14:19:55.617Z,17.85
2023-04-30T14:22:24.602Z,17.94
2023-04-30T14:24:53.089Z,18.06
2023-04-30T14:27:21.305Z,18.01
2023-04-30T14:29:48.742Z,18.14
2023-04-30T14:32:17.602Z,18.38
2023-04-30T14:34:44.895Z,18.79
2023-04-30T14:37:12.193Z,18.72
2023-04-30T14:39:39.481Z,19.05
2023-04-30T14:42:06.714Z,18.88
2023-04-30T14:44:33.939Z,18.36
2023-04-30T14:47:01.500Z,18.06
2023-04-30T14:49:30.464Z,18.06
2023-04-30T14:51:57.868Z,18.00
2023-04-30T14:54:25.200Z,18.07
2023-04-30T14:56:52.760Z,18.03
2023-04-30T14:59:19.993Z,18.28
2023-04-30T15:01:47.272Z,18.14
2023-04-30T15:04:14.547Z,18.03
2023-04-30T15:06:43.314Z,18.00
2023-04-30T15:09:12.383Z,18.06
2023-04-30T15:11:40.016Z,18.07
2023-04-30T15:14:07.308Z,17.82
2023-04-30T15:16:35.283Z,18.13
2023-04-30T15:19:02.880Z,18.37
2023-04-30T15:21:30.537Z,18.54
2023-04-30T15:23:59.301Z,18.73
2023-04-30T15:26:28.085Z,18.54
2023-04-30T15:28:55.644Z,18.54
2023-04-30T15:31:23.324Z,18.43
2023-04-30T15:33:51.535Z,18.36
2023-04-30T15:36:18.962Z,18.10
2023-04-30T15:38:46.113Z,18.09
2023-04-30T15:41:14.811Z,17.99
2023-04-30T15:43:42.064Z,17.85
2023-04-30T15:46:09.400Z,17.80
2023-04-30T15:48:37.121Z,18.01
2023-04-30T15:51:04.587Z,18.16
2023-04-30T15:53:31.762Z,18.17
2023-04-30T15:55:58.964Z,18.10
2023-04-30T15:58:27.869Z,17.61
2023-04-30T16:00:55.251Z,17.32
2023-04-30T16:03:22.777Z,17.15
2023-04-30T16:05:50.209Z,16.93
2023-04-30T16:08:17.490Z,16.99
2023-04-30T16:10:44.734Z,17.14
2023-04-30T16:13:12.220Z,17.41
2023-04-30T16:15:40.902Z,17.63
2023-04-30T16:18:29.957Z,17.65
2023-04-30T16:20:57.533Z,17.73
2023-04-30T16:23:24.780Z,17.79
2023-04-30T16:25:51.988Z,17.79
2023-04-30T16:28:19.417Z,18.38
2023-04-30T16:30:48.248Z,19.34
2023-04-30T16:33:16.395Z,19.02
2023-04-30T16:35:43.991Z,18.89
2023-04-30T16:38:11.415Z,18.47
2023-04-30T16:40:38.724Z,18.04
2023-04-30T16:43:09.610Z,17.71
2023-04-30T16:45:36.912Z,17.52
2023-04-30T16:48:06.524Z,17.36
2023-04-30T16:50:34.108Z,17.27
2023-04-30T16:53:01.721Z,17.25
2023-04-30T16:55:29.176Z,17.23
2023-04-30T16:57:56.462Z,17.13
2023-04-30T17:00:23.664Z,16.97
2023-04-30T17:02:53.242Z,16.96
2023-04-30T17:05:22.153Z,16.96
2023-04-30T17:07:49.513Z,16.77
2023-04-30T17:10:19.031Z,16.73
2023-04-30T17:12:46.516Z,16.77
2023-04-30T17:15:13.961Z,16.70
2023-04-30T17:17:41.751Z,16.75
2023-04-30T17:20:09.988Z,16.77
2023-04-30T17:22:38.982Z,16.70
2023-04-30T17:25:06.903Z,16.63
2023-04-30T17:27:34.431Z,16.65
2023-04-30T17:30:04.474Z,16.52
2023-04-30T17:32:32.027Z,16.42
2023-04-30T17:35:00.234Z,16.33
2023-04-30T17:37:27.814Z,16.14
2023-04-30T17:39:57.059Z,16.05
2023-04-30T17:42:24.686Z,15.98
2023-04-30T17:44:52.198Z,15.84
2023-04-30T17:47:19.368Z,15.64
2023-04-30T17:49:46.832Z,15.59
2023-04-30T17:52:14.321Z,15.54
2023-04-30T17:54:41.704Z,15.36
2023-04-30T17:57:10.734Z,15.26
2023-04-30T17:59:39.022Z,15.12
2023-04-30T18:02:07.478Z,15.01
2023-04-30T18:04:35.158Z,14.92
2023-04-30T18:07:02.753Z,14.78
2023-04-30T18:09:31.416Z,14.76
2023-04-30T18:12:00.085Z,14.74
2023-04-30T18:14:29.159Z,14.68
2023-04-30T18:16:56.423Z,14.66
2023-04-30T18:19:24.108Z,14.60
2023-04-30T18:21:53.159Z,14.46
2023-04-30T18:24:21.290Z,14.28
2023-04-30T18:26:48.802Z,14.30
2023-04-30T18:29:17.743Z,14.21
2023-04-30T18:31:47.292Z,14.04
2023-04-30T18:34:14.714Z,14.00
2023-04-30T18:36:43.144Z,13.84
2023-04-30T18:39:12.484Z,13.78
2023-04-30T18:41:39.975Z,13.79
2023-04-30T18:44:10.034Z,13.79
2023-04-30T18:46:37.559Z,13.60
2023-04-30T18:49:06.983Z,13.60
2023-04-30T18:51:34.925Z,13.46
2023-04-30T18:54:02.288Z,13.33
2023-04-30T18:56:29.619Z,13.33
2023-04-30T18:58:56.925Z,13.26
2023-04-30T19:01:27.476Z,13.09
2023-04-30T19:03:55.454Z,13.05
2023-04-30T19:06:24.334Z,12.96
2023-04-30T19:08:52.048Z,13.05
2023-04-30T19:11:20.173Z,12.98
2023-04-30T19:13:47.503Z,12.82
2023-04-30T19:16:15.211Z,12.79
2023-04-30T19:18:42.617Z,12.82
2023-04-30T19:21:13.060Z,12.85
2023-04-30T19:23:43.358Z,12.78
2023-04-30T19:26:10.951Z,12.60
2023-04-30T19:28:38.567Z,12.72
2023-04-30T19:31:06.194Z,12.67
2023-04-30T19:33:38.466Z,12.60
2023-04-30T19:36:06.184Z,12.48
2023-04-30T19:38:33.679Z,12.45
2023-04-30T19:41:02.697Z,12.38
2023-04-30T19:43:30.216Z,12.20
2023-04-30T19:45:58.910Z,12.29
2023-04-30T19:48:27.151Z,12.12
2023-04-30T19:50:55.015Z,12.02
2023-04-30T19:53:22.663Z,11.87
2023-04-30T19:55:52.406Z,11.79
2023-04-30T19:58:21.491Z,11.78
2023-04-30T20:00:49.389Z,11.75
2023-04-30T20:03:17.895Z,11.74
2023-04-30T20:05:45.551Z,11.61
2023-04-30T20:08:13.022Z,11.66
2023-04-30T20:10:41.558Z,11.48
2023-04-30T20:13:09.443Z,11.50
2023-04-30T20:15:38.280Z,11.51
2023-04-30T20:18:06.428Z,11.35
2023-04-30T20:20:34.055Z,11.52
2023-04-30T20:23:11.727Z,11.35
2023-04-30T20:25:39.539Z,11.39
2023-04-30T20:28:07.112Z,11.31
2023-04-30T20:30:35.221Z,11.17
2023-04-30T20:33:04.057Z,11.00
2023-04-30T20:35:31.710Z,11.09
2023-04-30T20:37:59.215Z,11.23
2023-04-30T20:40:28.027Z,11.27
2023-04-30T20:42:56.038Z,11.45
2023-04-30T20:45:23.939Z,11.52
2023-04-30T20:47:51.211Z,11.52
2023-04-30T20:50:20.701Z,11.45
2023-04-30T20:52:47.930Z,11.41
2023-04-30T20:55:15.489Z,11.58
2023-04-30T20:57:42.629Z,11.62
2023-04-30T21:00:11.756Z,11.71
2023-04-30T21:02:39.380Z,11.62
2023-04-30T21:05:08.236Z,11.48
2023-04-30T21:07:36.974Z,11.50
2023-04-30T21:10:11.169Z,11.38
2023-04-30T21:12:38.435Z,11.38
2023-04-30T21:15:06.374Z,11.32
2023-04-30T21:17:33.691Z,11.28
2023-04-30T21:20:01.515Z,11.26
2023-04-30T21:22:28.852Z,11.18
2023-04-30T21:24:57.420Z,11.03
2023-04-30T21:27:24.635Z,10.97
2023-04-30T21:29:52.026Z,10.90
2023-04-30T21:32:19.350Z,10.86
2023-04-30T21:34:46.632Z,10.77
2023-04-30T21:37:17.403Z,10.72
2023-04-30T21:39:44.849Z,10.69
2023-04-30T21:42:13.494Z,10.77
2023-04-30T21:44:41.161Z,10.48
2023-04-30T21:47:08.964Z,10.65
2023-04-30T21:49:36.409Z,10.58
2023-04-30T21:52:08.309Z,10.45
2023-04-30T21:54:35.588Z,10.38
2023-04-30T21:57:02.925Z,10.37
2023-04-30T21:59:33.885Z,10.38
2023-04-30T22:02:07.392Z,10.32
2023-04-30T22:04:37.585Z,10.37
2023-04-30T22:07:05.304Z,10.35
2023-04-30T22:09:32.539Z,10.42
2023-04-30T22:12:00.368Z,10.37
2023-04-30T22:14:28.140Z,10.38
2023-04-30T22:16:57.800Z,10.34
2023-04-30T22:19:25.074Z,10.44
2023-04-30T22:21:53.041Z,10.55
2023-04-30T22:24:20.275Z,10.34
2023-04-30T22:26:47.705Z,10.35
2023-04-30T22:29:14.856Z,10.31
2023-04-30T22:31:42.242Z,10.18
2023-04-30T22:34:10.985Z,10.18
2023-04-30T22:36:38.253Z,10.41
2023-04-30T22:39:06.204Z,10.56
2023-04-30T22:41:34.709Z,10.59
2023-04-30T22:44:02.077Z,10.77
2023-04-30T22:46:31.738Z,10.93
2023-04-30T22:48:59.491Z,10.96
2023-04-30T22:51:28.411Z,10.97
2023-04-30T22:53:56.831Z,10.92
2023-04-30T22:56:24.662Z,11.04
2023-04-30T22:58:52.143Z,10.92
2023-04-30T23:01:20.270Z,11.01
2023-04-30T23:03:48.036Z,10.89
2023-04-30T23:06:15.455Z,10.92
2023-04-30T23:08:44.492Z,10.68
2023-04-30T23:11:12.128Z,10.77
2023-04-30T23:13:39.584Z,10.68
2023-04-30T23:16:10.300Z,10.59
2023-04-30T23:18:37.673Z,10.56
2023-04-30T23:21:05.977Z,10.46
2023-04-30T23:23:33.585Z,10.46
2023-04-30T23:26:02.291Z,10.48
2023-04-30T23:28:29.615Z,10.48
2023-04-30T23:31:00.151Z,10.56
2023-04-30T23:33:27.981Z,10.56
2023-04-30T23:35:55.391Z,10.59
2023-04-30T23:38:22.992Z,10.66
2023-04-30T23:40:50.589Z,10.56
2023-04-30T23:43:19.237Z,10.52
2023-04-30T23:45:46.410Z,10.41
2023-04-30T23:48:13.712Z,10.38
2023-04-30T23:50:41.030Z,10.40
2023-04-30T23:53:08.704Z,10.25
2023-04-30T23:55:35.988Z,10.37
2023-04-30T23:58:03.190Z,10.21
